Max Mariner — 9HA4085 — position and weather

sailwx.info

Track history (hours):
 
Tides and Currents Weather Stations Pressure Air Temp Water Temp Dewpoint Dewpoint Depression Visibility Wind Speed Wind Dir Waves Ship Positions

Max Mariner

Last reported at 2018-Feb-16 13:11 UTC. Time now 2018-Feb-19 06:13 UTC.
Position N 34°34' E 130°17'.

Length 132 m; draft 7.6 m.

Type: Cargo ship. MMSI: 249031000.

Date/timePositionNaut miles runAvg speedWind from/ knotsBaromVisibWave heightAir tempDewpointWater temp
2018-Feb-16 13:11N 34°34' E 130°17'2 7.6
2018-Feb-16 12:59N 34°33' E 130°18'4 7.5
2018-Feb-16 12:29N 34°30' E 130°21'3 7.1
2018-Feb-16 12:00N 34°28' E 130°24'4 7.1
2018-Feb-16 11:30N 34°25' E 130°27'4 7.3
2018-Feb-16 11:00N 34°22' E 130°29'4 7.7
2018-Feb-16 10:30N 34°19' E 130°32'4 7.7
2018-Feb-16 10:00N 34°16' E 130°35'4 7.7
2018-Feb-16 09:30N 34°13' E 130°38'4 8.0
2018-Feb-16 09:00N 34°10' E 130°41'4 7.7
2018-Feb-16 08:29N 34°07' E 130°44'4 7.9
2018-Feb-16 08:00N 34°04' E 130°48'4 8.8
2018-Feb-16 07:30N 34°01' E 130°51'5 9.5
2018-Feb-16 07:01N 33°57' E 130°52'3 6.3
2018-Feb-16 06:30N 33°55' E 130°56'4 7.6
2018-Feb-16 06:00N 33°58' E 130°59'611.1
2018-Feb-16 05:30N 33°56' E 131°05'510.5
2018-Feb-16 05:00N 33°53' E 131°10'5 9.1
2018-Feb-16 04:30N 33°52' E 131°15'5 9.4
2018-Feb-16 04:00N 33°51' E 131°21'5 9.2
2018-Feb-16 03:30N 33°50' E 131°26'5 9.2
2018-Feb-16 03:00N 33°49' E 131°32'5 9.1
2018-Feb-16 02:30N 33°48' E 131°37'5 9.4
2018-Feb-16 02:00N 33°47' E 131°42'5 9.5
2018-Feb-16 01:30N 33°46' E 131°48'21 9.2
2018-Feb-15 23:16N 33°43' E 132°13'2 9.0
2018-Feb-15 23:00N 33°44' E 132°15'5 8.8
2018-Feb-15 22:24N 33°46' E 132°21'4 8.8
2018-Feb-15 21:57N 33°47' E 132°26'4 9.0
2018-Feb-15 21:30N 33°49' E 132°30'4 8.7
2018-Feb-15 20:59N 33°52' E 132°34'5 9.3
2018-Feb-15 20:30N 33°55' E 132°38'5 9.3
2018-Feb-15 20:00N 33°58' E 132°43'5 9.2
2018-Feb-15 19:27N 34°02' E 132°46'66 4.0
2018-Feb-15 02:48N 34°23' E 134°02'6 1.1
2018-Feb-14 21:45N 34°26' E 134°08'410.4
2018-Feb-14 21:21N 34°25' E 134°12'410.7
2018-Feb-14 21:00N 34°24' E 134°17'611.0
2018-Feb-14 20:30N 34°25' E 134°23'611.4
2018-Feb-14 20:00N 34°28' E 134°30'611.2
2018-Feb-14 19:30N 34°30' E 134°36'511.0
2018-Feb-14 19:00N 34°32' E 134°42'510.6
2018-Feb-14 18:30N 34°34' E 134°48'5 9.4
2018-Feb-14 18:01N 34°36' E 134°53'5 9.0
2018-Feb-14 17:30N 34°37' E 134°58'4 7.2
2018-Feb-14 17:00N 34°37' E 135°03'4 7.6
2018-Feb-14 16:30N 34°35' E 135°07'510.6
2018-Feb-14 16:00N 34°36' E 135°13'510.9
2018-Feb-14 15:30N 34°37' E 135°20'511.1
2018-Feb-14 15:00N 34°39' E 135°26'1 1.6
2018-Feb-14 14:30N 34°38' E 135°26'0 0.0
2018-Feb-14 14:00N 34°38' E 135°26'0 0.0
2018-Feb-14 13:30N 34°38' E 135°26'0 0.0
2018-Feb-14 13:00N 34°38' E 135°26'0 0.0
2018-Feb-14 12:30N 34°38' E 135°26'0 0.0
2018-Feb-14 12:00N 34°38' E 135°26'0 0.0
2018-Feb-14 11:30N 34°38' E 135°26'0 0.0
2018-Feb-14 11:00N 34°38' E 135°26'0 0.0
2018-Feb-14 10:30N 34°38' E 135°26'0 0.1
2018-Feb-14 10:00N 34°38' E 135°26'0 0.1
2018-Feb-14 09:30N 34°38' E 135°26'0 0.9
2018-Feb-14 09:01N 34°39' E 135°26'3 5.2
2018-Feb-14 08:30N 34°38' E 135°23'4 8.6
2018-Feb-14 08:01N 34°37' E 135°18'4 8.0
2018-Feb-14 07:30N 34°40' E 135°14'0 0.0
2018-Feb-14 06:59N 34°40' E 135°14'0 0.0
2018-Feb-14 06:29N 34°40' E 135°14'0 0.0
2018-Feb-14 05:59N 34°40' E 135°14'0 0.0
2018-Feb-14 05:29N 34°40' E 135°14'0 0.0
2018-Feb-14 04:59N 34°40' E 135°14'0 0.0
2018-Feb-14 04:29N 34°40' E 135°14'0 0.0
2018-Feb-14 03:59N 34°40' E 135°14'0 0.0
2018-Feb-14 03:29N 34°40' E 135°14'0 0.0
2018-Feb-14 02:59N 34°40' E 135°14'0 0.0
2018-Feb-14 02:30N 34°40' E 135°14'1 2.5
2018-Feb-14 02:00N 34°39' E 135°16'4 8.4
2018-Feb-14 01:30N 34°35' E 135°13'612.1
2018-Feb-14 01:00N 34°35' E 135°06'5 9.9
2018-Feb-14 00:30N 34°37' E 135°01'611.2
2018-Feb-14 00:00N 34°35' E 134°54'510.2
2018-Feb-13 23:30N 34°33' E 134°49'511.0
2018-Feb-13 23:00N 34°31' E 134°42'611.6
2018-Feb-13 22:30N 34°29' E 134°36'611.8
2018-Feb-13 21:59N 34°26' E 134°29'612.1
2018-Feb-13 21:30N 34°24' E 134°22'811.9
2018-Feb-13 20:48N 34°24' E 134°12'7311.1
2018-Feb-13 14:15N 34°08' E 132°47'313.0
2018-Feb-13 14:00N 34°06' E 132°43'713.1
2018-Feb-13 13:30N 34°01' E 132°37'912.1
2018-Feb-13 12:48N 34°01' E 132°27'413.5
2018-Feb-13 12:30N 34°05' E 132°24'713.3
2018-Feb-13 12:01N 34°10' E 132°20'713.4
2018-Feb-13 11:30N 34°17' E 132°21'510.9
2018-Feb-13 11:01N 34°21' E 132°26'0 0.4
2018-Feb-13 10:29N 34°21' E 132°26'0 0.0
2018-Feb-13 09:59N 34°21' E 132°26'0 0.0
2018-Feb-13 09:29N 34°21' E 132°26'0 0.0
2018-Feb-13 08:59N 34°21' E 132°26'0 0.0
2018-Feb-13 08:30N 34°21' E 132°26'1 1.3
2018-Feb-13 08:00N 34°20' E 132°26'4 8.0
2018-Feb-13 07:31N 34°18' E 132°22'612.1
2018-Feb-13 07:00N 34°12' E 132°21'612.2
2018-Feb-13 06:29N 34°06' E 132°24'812.1
2018-Feb-13 05:51N 34°01' E 132°30'4 9.3
2018-Feb-13 05:24N 33°58' E 132°34'511.5
2018-Feb-13 04:59N 33°56' E 132°30'912.1
2018-Feb-13 04:16N 33°50' E 132°22'412.6
2018-Feb-13 03:58N 33°50' E 132°18'1512.5
2018-Feb-13 02:47N 33°45' E 132°01'413.4
2018-Feb-13 02:30N 33°45' E 131°56'713.7
2018-Feb-13 02:00N 33°45' E 131°48'714.0
2018-Feb-13 01:30N 33°46' E 131°40'713.9
2018-Feb-13 01:00N 33°48' E 131°32'713.7
2018-Feb-13 00:30N 33°49' E 131°23'613.4
2018-Feb-13 00:00N 33°51' E 131°16'613.0
2018-Feb-12 23:30N 33°53' E 131°09'612.9
2018-Feb-12 23:00N 33°57' E 131°02'4 8.7
2018-Feb-12 22:30N 33°57' E 130°57'4 7.9
2018-Feb-12 22:00N 33°55' E 130°54'611.5
2018-Feb-12 21:30N 33°60' E 130°50'612.4
2018-Feb-12 21:00N 34°04' E 130°45'612.9
2018-Feb-12 20:30N 34°08' E 130°39'613.0
2018-Feb-12 20:00N 34°12' E 130°33'713.2
2018-Feb-12 19:30N 34°16' E 130°26'713.1
2018-Feb-12 19:00N 34°20' E 130°20'713.2
2018-Feb-12 18:30N 34°24' E 130°14'713.4
2018-Feb-12 18:00N 34°28' E 130°07'  
2018-Feb-09 04:00N 34°10' E 130°42'3710.6
2018-Feb-09 00:30N 33°51' E 131°20'713.6
2018-Feb-09 00:00N 33°49' E 131°28'1313.3
2018-Feb-08 23:00N 33°46' E 131°44'4912.4
2018-Feb-08 19:00N 33°57' E 132°42'77 3.6
2018-Feb-07 21:41N 34°26' E 134°08'3 9.9
2018-Feb-07 21:21N 34°25' E 134°12'63 5.3
2018-Feb-07 09:30N 34°38' E 135°26'1 1.4
2018-Feb-07 09:00N 34°39' E 135°26'510.0
2018-Feb-07 08:30N 34°37' E 135°21'510.1
2018-Feb-07 08:00N 34°39' E 135°15'1 1.1
2018-Feb-07 07:29N 34°39' E 135°15'0 0.0
2018-Feb-07 06:47N 34°39' E 135°15'0 0.0
2018-Feb-07 06:26N 34°39' E 135°15'0 0.0
2018-Feb-07 05:56N 34°39' E 135°15'0 0.0
2018-Feb-07 05:26N 34°39' E 135°15'0 0.0
2018-Feb-07 04:59N 34°39' E 135°15'0 0.0
2018-Feb-07 04:29N 34°39' E 135°15'0 0.0
2018-Feb-07 03:59N 34°39' E 135°15'0 0.0
2018-Feb-07 03:29N 34°39' E 135°15'0 0.0
2018-Feb-07 03:00N 34°39' E 135°15'0 0.4
2018-Feb-07 02:30N 34°39' E 135°15'3 6.2
2018-Feb-07 02:00N 34°36' E 135°16'510.0
2018-Feb-07 01:30N 34°35' E 135°10'510.2
2018-Feb-07 01:00N 34°35' E 135°04'510.0
2018-Feb-07 00:30N 34°37' E 134°58'611.4
2018-Feb-07 00:00N 34°34' E 134°52'611.5
2018-Feb-06 23:30N 34°32' E 134°45'611.2
2018-Feb-06 23:00N 34°30' E 134°39'511.1
2018-Feb-06 22:30N 34°28' E 134°33'611.2
2018-Feb-06 22:00N 34°26' E 134°26'610.9
2018-Feb-06 21:27N 34°24' E 134°19'610.4
2018-Feb-06 20:53N 34°24' E 134°12'6312.0
2018-Feb-06 15:38N 34°09' E 132°58'914.3
2018-Feb-06 14:59N 34°08' E 132°47'714.0
2018-Feb-06 14:30N 34°04' E 132°41'1211.6
2018-Feb-06 13:29N 34°02' E 132°26'  
Track history (hours):
 
Tides and Currents Weather Stations Pressure Air Temp Water Temp Dewpoint Dewpoint Depression Visibility Wind Speed Wind Dir Waves Ship Positions

Max Mariner

Last reported at 2018-Feb-16 13:11 UTC. Time now 2018-Feb-19 06:13 UTC.
Position N 34°34' E 130°17'.

Length 132 m; draft 7.6 m.

Type: Cargo ship. MMSI: 249031000.

Date/timePositionNaut miles runAvg speedWind from/ knotsBaromVisibWave heightAir tempDewpointWater temp
2018-Feb-16 13:11N 34°34' E 130°17'2 7.6
2018-Feb-16 12:59N 34°33' E 130°18'4 7.5
2018-Feb-16 12:29N 34°30' E 130°21'3 7.1
2018-Feb-16 12:00N 34°28' E 130°24'4 7.1
2018-Feb-16 11:30N 34°25' E 130°27'4 7.3
2018-Feb-16 11:00N 34°22' E 130°29'4 7.7
2018-Feb-16 10:30N 34°19' E 130°32'4 7.7
2018-Feb-16 10:00N 34°16' E 130°35'4 7.7
2018-Feb-16 09:30N 34°13' E 130°38'4 8.0
2018-Feb-16 09:00N 34°10' E 130°41'4 7.7
2018-Feb-16 08:29N 34°07' E 130°44'4 7.9
2018-Feb-16 08:00N 34°04' E 130°48'4 8.8
2018-Feb-16 07:30N 34°01' E 130°51'5 9.5
2018-Feb-16 07:01N 33°57' E 130°52'3 6.3
2018-Feb-16 06:30N 33°55' E 130°56'4 7.6
2018-Feb-16 06:00N 33°58' E 130°59'611.1
2018-Feb-16 05:30N 33°56' E 131°05'510.5
2018-Feb-16 05:00N 33°53' E 131°10'5 9.1
2018-Feb-16 04:30N 33°52' E 131°15'5 9.4
2018-Feb-16 04:00N 33°51' E 131°21'5 9.2
2018-Feb-16 03:30N 33°50' E 131°26'5 9.2
2018-Feb-16 03:00N 33°49' E 131°32'5 9.1
2018-Feb-16 02:30N 33°48' E 131°37'5 9.4
2018-Feb-16 02:00N 33°47' E 131°42'5 9.5
2018-Feb-16 01:30N 33°46' E 131°48'21 9.2
2018-Feb-15 23:16N 33°43' E 132°13'2 9.0
2018-Feb-15 23:00N 33°44' E 132°15'5 8.8
2018-Feb-15 22:24N 33°46' E 132°21'4 8.8
2018-Feb-15 21:57N 33°47' E 132°26'4 9.0
2018-Feb-15 21:30N 33°49' E 132°30'4 8.7
2018-Feb-15 20:59N 33°52' E 132°34'5 9.3
2018-Feb-15 20:30N 33°55' E 132°38'5 9.3
2018-Feb-15 20:00N 33°58' E 132°43'5 9.2
2018-Feb-15 19:27N 34°02' E 132°46'66 4.0
2018-Feb-15 02:48N 34°23' E 134°02'6 1.1
2018-Feb-14 21:45N 34°26' E 134°08'410.4
2018-Feb-14 21:21N 34°25' E 134°12'410.7
2018-Feb-14 21:00N 34°24' E 134°17'611.0
2018-Feb-14 20:30N 34°25' E 134°23'611.4
2018-Feb-14 20:00N 34°28' E 134°30'611.2
2018-Feb-14 19:30N 34°30' E 134°36'511.0
2018-Feb-14 19:00N 34°32' E 134°42'510.6
2018-Feb-14 18:30N 34°34' E 134°48'5 9.4
2018-Feb-14 18:01N 34°36' E 134°53'5 9.0
2018-Feb-14 17:30N 34°37' E 134°58'4 7.2
2018-Feb-14 17:00N 34°37' E 135°03'4 7.6
2018-Feb-14 16:30N 34°35' E 135°07'510.6
2018-Feb-14 16:00N 34°36' E 135°13'510.9
2018-Feb-14 15:30N 34°37' E 135°20'511.1
2018-Feb-14 15:00N 34°39' E 135°26'1 1.6
2018-Feb-14 14:30N 34°38' E 135°26'0 0.0
2018-Feb-14 14:00N 34°38' E 135°26'0 0.0
2018-Feb-14 13:30N 34°38' E 135°26'0 0.0
2018-Feb-14 13:00N 34°38' E 135°26'0 0.0
2018-Feb-14 12:30N 34°38' E 135°26'0 0.0
2018-Feb-14 12:00N 34°38' E 135°26'0 0.0
2018-Feb-14 11:30N 34°38' E 135°26'0 0.0
2018-Feb-14 11:00N 34°38' E 135°26'0 0.0
2018-Feb-14 10:30N 34°38' E 135°26'0 0.1
2018-Feb-14 10:00N 34°38' E 135°26'0 0.1
2018-Feb-14 09:30N 34°38' E 135°26'0 0.9
2018-Feb-14 09:01N 34°39' E 135°26'3 5.2
2018-Feb-14 08:30N 34°38' E 135°23'4 8.6
2018-Feb-14 08:01N 34°37' E 135°18'4 8.0
2018-Feb-14 07:30N 34°40' E 135°14'0 0.0
2018-Feb-14 06:59N 34°40' E 135°14'0 0.0
2018-Feb-14 06:29N 34°40' E 135°14'0 0.0
2018-Feb-14 05:59N 34°40' E 135°14'0 0.0
2018-Feb-14 05:29N 34°40' E 135°14'0 0.0
2018-Feb-14 04:59N 34°40' E 135°14'0 0.0
2018-Feb-14 04:29N 34°40' E 135°14'0 0.0
2018-Feb-14 03:59N 34°40' E 135°14'0 0.0
2018-Feb-14 03:29N 34°40' E 135°14'0 0.0
2018-Feb-14 02:59N 34°40' E 135°14'0 0.0
2018-Feb-14 02:30N 34°40' E 135°14'1 2.5
2018-Feb-14 02:00N 34°39' E 135°16'4 8.4
2018-Feb-14 01:30N 34°35' E 135°13'612.1
2018-Feb-14 01:00N 34°35' E 135°06'5 9.9
2018-Feb-14 00:30N 34°37' E 135°01'611.2
2018-Feb-14 00:00N 34°35' E 134°54'510.2
2018-Feb-13 23:30N 34°33' E 134°49'511.0
2018-Feb-13 23:00N 34°31' E 134°42'611.6
2018-Feb-13 22:30N 34°29' E 134°36'611.8
2018-Feb-13 21:59N 34°26' E 134°29'612.1
2018-Feb-13 21:30N 34°24' E 134°22'811.9
2018-Feb-13 20:48N 34°24' E 134°12'7311.1
2018-Feb-13 14:15N 34°08' E 132°47'313.0
2018-Feb-13 14:00N 34°06' E 132°43'713.1
2018-Feb-13 13:30N 34°01' E 132°37'912.1
2018-Feb-13 12:48N 34°01' E 132°27'413.5
2018-Feb-13 12:30N 34°05' E 132°24'713.3
2018-Feb-13 12:01N 34°10' E 132°20'713.4
2018-Feb-13 11:30N 34°17' E 132°21'510.9
2018-Feb-13 11:01N 34°21' E 132°26'0 0.4
2018-Feb-13 10:29N 34°21' E 132°26'0 0.0
2018-Feb-13 09:59N 34°21' E 132°26'0 0.0
2018-Feb-13 09:29N 34°21' E 132°26'0 0.0
2018-Feb-13 08:59N 34°21' E 132°26'0 0.0
2018-Feb-13 08:30N 34°21' E 132°26'1 1.3
2018-Feb-13 08:00N 34°20' E 132°26'4 8.0
2018-Feb-13 07:31N 34°18' E 132°22'612.1
2018-Feb-13 07:00N 34°12' E 132°21'612.2
2018-Feb-13 06:29N 34°06' E 132°24'812.1
2018-Feb-13 05:51N 34°01' E 132°30'4 9.3
2018-Feb-13 05:24N 33°58' E 132°34'511.5
2018-Feb-13 04:59N 33°56' E 132°30'912.1
2018-Feb-13 04:16N 33°50' E 132°22'412.6
2018-Feb-13 03:58N 33°50' E 132°18'1512.5
2018-Feb-13 02:47N 33°45' E 132°01'413.4
2018-Feb-13 02:30N 33°45' E 131°56'713.7
2018-Feb-13 02:00N 33°45' E 131°48'714.0
2018-Feb-13 01:30N 33°46' E 131°40'713.9
2018-Feb-13 01:00N 33°48' E 131°32'713.7
2018-Feb-13 00:30N 33°49' E 131°23'613.4
2018-Feb-13 00:00N 33°51' E 131°16'613.0
2018-Feb-12 23:30N 33°53' E 131°09'612.9
2018-Feb-12 23:00N 33°57' E 131°02'4 8.7
2018-Feb-12 22:30N 33°57' E 130°57'4 7.9
2018-Feb-12 22:00N 33°55' E 130°54'611.5
2018-Feb-12 21:30N 33°60' E 130°50'612.4
2018-Feb-12 21:00N 34°04' E 130°45'612.9
2018-Feb-12 20:30N 34°08' E 130°39'613.0
2018-Feb-12 20:00N 34°12' E 130°33'713.2
2018-Feb-12 19:30N 34°16' E 130°26'713.1
2018-Feb-12 19:00N 34°20' E 130°20'713.2
2018-Feb-12 18:30N 34°24' E 130°14'713.4
2018-Feb-12 18:00N 34°28' E 130°07'  
2018-Feb-09 04:00N 34°10' E 130°42'3710.6
2018-Feb-09 00:30N 33°51' E 131°20'713.6
2018-Feb-09 00:00N 33°49' E 131°28'1313.3
2018-Feb-08 23:00N 33°46' E 131°44'4912.4
2018-Feb-08 19:00N 33°57' E 132°42'77 3.6
2018-Feb-07 21:41N 34°26' E 134°08'3 9.9
2018-Feb-07 21:21N 34°25' E 134°12'63 5.3
2018-Feb-07 09:30N 34°38' E 135°26'1 1.4
2018-Feb-07 09:00N 34°39' E 135°26'510.0
2018-Feb-07 08:30N 34°37' E 135°21'510.1
2018-Feb-07 08:00N 34°39' E 135°15'1 1.1
2018-Feb-07 07:29N 34°39' E 135°15'0 0.0
2018-Feb-07 06:47N 34°39' E 135°15'0 0.0
2018-Feb-07 06:26N 34°39' E 135°15'0 0.0
2018-Feb-07 05:56N 34°39' E 135°15'0 0.0
2018-Feb-07 05:26N 34°39' E 135°15'0 0.0
2018-Feb-07 04:59N 34°39' E 135°15'0 0.0
2018-Feb-07 04:29N 34°39' E 135°15'0 0.0
2018-Feb-07 03:59N 34°39' E 135°15'0 0.0
2018-Feb-07 03:29N 34°39' E 135°15'0 0.0
2018-Feb-07 03:00N 34°39' E 135°15'0 0.4
2018-Feb-07 02:30N 34°39' E 135°15'3 6.2
2018-Feb-07 02:00N 34°36' E 135°16'510.0
2018-Feb-07 01:30N 34°35' E 135°10'510.2
2018-Feb-07 01:00N 34°35' E 135°04'510.0
2018-Feb-07 00:30N 34°37' E 134°58'611.4
2018-Feb-07 00:00N 34°34' E 134°52'611.5
2018-Feb-06 23:30N 34°32' E 134°45'611.2
2018-Feb-06 23:00N 34°30' E 134°39'511.1
2018-Feb-06 22:30N 34°28' E 134°33'611.2
2018-Feb-06 22:00N 34°26' E 134°26'610.9
2018-Feb-06 21:27N 34°24' E 134°19'610.4
2018-Feb-06 20:53N 34°24' E 134°12'6312.0
2018-Feb-06 15:38N 34°09' E 132°58'914.3
2018-Feb-06 14:59N 34°08' E 132°47'714.0
2018-Feb-06 14:30N 34°04' E 132°41'1211.6
2018-Feb-06 13:29N 34°02' E 132°26'  

Dump ship's entire track history